EDW21PL LSZH-GCFV
Flight info
| Callsign | EDW21PL |
|---|---|
| Flight time | N/A |
| Altitude | 33000 |
| Route | VEBIT T50 ROTOS Z669 ULMES DCT VADAR DCT NINTU DCT MEBAK DCT REPSI DCT LERGA DCT MINSO DCT NARAK DCT AGN DCT MAQAB DCT TIVLI DCT ELSAP DCT ZAR/N0459F350 DCT EXEMU DCT PISUS DCT EDIMU DCT ADUXO DCT NUSGO DCT OBIBO DCT NASOS DCT ANZAN DCT BLN DCT MGA DCT PIMOS DCT GALTO UN869 RUSIK |
| Aircraft | A320/M-SDE3FGHIRWY/LB1 |
Departure
| Time | 2026-05-04 18:59 |
|---|---|
| Airport | Zürich Airport (LSZH) |
Arrival
| Time | N/A |
|---|---|
| Airport | Fuerteventura Airport (GCFV) |
| Time | Latitude | Longitude | Altitude | Speed | Heading |
|---|---|---|---|---|---|
| 2026-05-04 18:45 | 47.45500 | 8.55865 | 1401 ft | 2 kts | 111° |
| 2026-05-04 18:45 | 47.45502 | 8.55855 | 1401 ft | 1 kts | 89° |
| 2026-05-04 18:46 | 47.45502 | 8.55847 | 1401 ft | 0 kts | 95° |
| 2026-05-04 18:53 | 47.45502 | 8.55850 | 1401 ft | 1 kts | 95° |
| 2026-05-04 18:53 | 47.45500 | 8.55889 | 1401 ft | 5 kts | 98° |
| 2026-05-04 18:54 | 47.45494 | 8.55969 | 1403 ft | 9 kts | 91° |
| 2026-05-04 18:54 | 47.45487 | 8.56080 | 1407 ft | 11 kts | 101° |
| 2026-05-04 18:54 | 47.45484 | 8.56203 | 1411 ft | 13 kts | 76° |
| 2026-05-04 18:54 | 47.45553 | 8.56329 | 1410 ft | 19 kts | 52° |
| 2026-05-04 18:55 | 47.45591 | 8.56521 | 1412 ft | 21 kts | 94° |
| 2026-05-04 18:55 | 47.45566 | 8.57011 | 1419 ft | 25 kts | 84° |
| 2026-05-04 18:55 | 47.45555 | 8.57085 | 1421 ft | 23 kts | 116° |
| 2026-05-04 18:56 | 47.45549 | 8.57110 | 1421 ft | 0 kts | 108° |
| 2026-05-04 18:56 | 47.45548 | 8.57111 | 1421 ft | 0 kts | 121° |
| 2026-05-04 18:56 | 47.45537 | 8.57105 | 1422 ft | 3 kts | 235° |
| 2026-05-04 18:57 | 47.45545 | 8.57038 | 1421 ft | 10 kts | 316° |
| 2026-05-04 18:57 | 47.45575 | 8.57016 | 1419 ft | 0 kts | 354° |
| 2026-05-04 18:57 | 47.45576 | 8.57016 | 1419 ft | 1 kts | 359° |
| 2026-05-04 18:57 | 47.45619 | 8.57018 | 1418 ft | 10 kts | 2° |
| 2026-05-04 18:58 | 47.45668 | 8.56917 | 1415 ft | 16 kts | 279° |
| 2026-05-04 18:58 | 47.45674 | 8.56853 | 1414 ft | 0 kts | 275° |
| 2026-05-04 18:58 | 47.45686 | 8.56657 | 1410 ft | 53 kts | 277° |
| 2026-05-04 18:58 | 47.45750 | 8.55779 | 1396 ft | 118 kts | 276° |
| 2026-05-04 18:59 | 47.45847 | 8.54302 | 1433 ft | 165 kts | 276° |
| 2026-05-04 18:59 | 47.45954 | 8.52633 | 2036 ft | 163 kts | 277° |
| 2026-05-04 18:59 | 47.46057 | 8.50965 | 2604 ft | 168 kts | 276° |
| 2026-05-04 18:59 | 47.46174 | 8.49260 | 3215 ft | 169 kts | 276° |
| 2026-05-04 19:00 | 47.46090 | 8.47493 | 3551 ft | 182 kts | 246° |
| 2026-05-04 19:00 | 47.45213 | 8.46080 | 3849 ft | 199 kts | 214° |
| 2026-05-04 19:00 | 47.43984 | 8.44964 | 4108 ft | 219 kts | 219° |
| 2026-05-04 19:00 | 47.42900 | 8.43250 | 4436 ft | 235 kts | 235° |
| 2026-05-04 19:01 | 47.41956 | 8.41207 | 4804 ft | 252 kts | 237° |
| 2026-05-04 19:01 | 47.40959 | 8.38979 | 5245 ft | 266 kts | 236° |
| 2026-05-04 19:01 | 47.39912 | 8.36690 | 5907 ft | 270 kts | 235° |
| 2026-05-04 19:01 | 47.38903 | 8.34398 | 6597 ft | 273 kts | 238° |
| 2026-05-04 19:02 | 47.37984 | 8.31936 | 7276 ft | 277 kts | 240° |
| 2026-05-04 19:02 | 47.37091 | 8.29416 | 7949 ft | 280 kts | 240° |
| 2026-05-04 19:02 | 47.36192 | 8.26867 | 8600 ft | 283 kts | 239° |
| 2026-05-04 19:02 | 47.35292 | 8.24326 | 9245 ft | 286 kts | 239° |
| 2026-05-04 19:03 | 47.34361 | 8.21703 | 9895 ft | 290 kts | 239° |
| 2026-05-04 19:03 | 47.33430 | 8.19096 | 10463 ft | 295 kts | 239° |
| 2026-05-04 19:03 | 47.32439 | 8.16335 | 10769 ft | 310 kts | 239° |
| 2026-05-04 19:03 | 47.31410 | 8.13459 | 11040 ft | 325 kts | 239° |
| 2026-05-04 19:04 | 47.30352 | 8.10486 | 11310 ft | 340 kts | 240° |
| 2026-05-04 19:04 | 47.29228 | 8.07321 | 11585 ft | 354 kts | 240° |
| 2026-05-04 19:04 | 47.28065 | 8.04055 | 11893 ft | 364 kts | 240° |
| 2026-05-04 19:04 | 47.26913 | 8.00705 | 12448 ft | 368 kts | 243° |
| 2026-05-04 19:05 | 47.25904 | 7.97307 | 13035 ft | 369 kts | 245° |
| 2026-05-04 19:05 | 47.24929 | 7.93818 | 13610 ft | 370 kts | 246° |
| 2026-05-04 19:05 | 47.23951 | 7.90302 | 14173 ft | 371 kts | 246° |
| 2026-05-04 19:05 | 47.22969 | 7.86774 | 14721 ft | 373 kts | 246° |